sensor_id;sensor_type;location;lat;lon;timestamp;P1;durP1;ratioP1;P2;durP2;ratioP2
59263;SDS011;45030;42.720;23.344;2023-07-24T00:00:08;9.32;;;3.83;;
59263;SDS011;45030;42.720;23.344;2023-07-24T00:02:33;8.70;;;4.45;;
59263;SDS011;45030;42.720;23.344;2023-07-24T00:04:58;8.80;;;4.35;;
59263;SDS011;45030;42.720;23.344;2023-07-24T00:07:23;9.33;;;4.33;;
59263;SDS011;45030;42.720;23.344;2023-07-24T00:09:50;9.00;;;4.72;;
59263;SDS011;45030;42.720;23.344;2023-07-24T00:12:15;8.20;;;4.20;;
59263;SDS011;45030;42.720;23.344;2023-07-24T00:14:40;8.95;;;4.50;;
59263;SDS011;45030;42.720;23.344;2023-07-24T00:17:06;7.97;;;4.70;;
59263;SDS011;45030;42.720;23.344;2023-07-24T00:19:31;10.13;;;5.70;;
59263;SDS011;45030;42.720;23.344;2023-07-24T00:21:56;9.93;;;4.93;;
59263;SDS011;45030;42.720;23.344;2023-07-24T00:24:21;10.00;;;5.70;;
59263;SDS011;45030;42.720;23.344;2023-07-24T00:26:47;10.20;;;4.47;;
59263;SDS011;45030;42.720;23.344;2023-07-24T00:29:12;9.15;;;4.30;;
59263;SDS011;45030;42.720;23.344;2023-07-24T00:31:37;8.52;;;3.92;;
59263;SDS011;45030;42.720;23.344;2023-07-24T00:34:02;8.90;;;4.57;;
59263;SDS011;45030;42.720;23.344;2023-07-24T00:36:27;7.93;;;4.13;;
59263;SDS011;45030;42.720;23.344;2023-07-24T00:38:53;10.45;;;4.35;;
59263;SDS011;45030;42.720;23.344;2023-07-24T00:41:18;11.48;;;4.75;;
59263;SDS011;45030;42.720;23.344;2023-07-24T00:43:43;8.77;;;4.00;;
59263;SDS011;45030;42.720;23.344;2023-07-24T00:46:09;9.98;;;4.20;;
59263;SDS011;45030;42.720;23.344;2023-07-24T00:48:35;11.18;;;4.05;;
59263;SDS011;45030;42.720;23.344;2023-07-24T00:51:00;7.10;;;3.90;;
59263;SDS011;45030;42.720;23.344;2023-07-24T00:53:26;8.27;;;3.88;;
59263;SDS011;45030;42.720;23.344;2023-07-24T00:55:52;8.85;;;4.45;;
59263;SDS011;45030;42.720;23.344;2023-07-24T00:58:17;8.40;;;4.40;;
59263;SDS011;45030;42.720;23.344;2023-07-24T01:00:44;5.95;;;3.70;;
59263;SDS011;45030;42.720;23.344;2023-07-24T01:03:09;7.63;;;4.32;;
59263;SDS011;45030;42.720;23.344;2023-07-24T01:05:34;9.32;;;5.97;;
59263;SDS011;45030;42.720;23.344;2023-07-24T01:08:00;8.02;;;4.30;;
59263;SDS011;45030;42.720;23.344;2023-07-24T01:10:25;8.70;;;4.70;;
59263;SDS011;45030;42.720;23.344;2023-07-24T01:15:24;6.78;;;3.40;;
59263;SDS011;45030;42.720;23.344;2023-07-24T01:17:57;9.65;;;4.40;;
59263;SDS011;45030;42.720;23.344;2023-07-24T01:20:23;7.70;;;4.03;;
59263;SDS011;45030;42.720;23.344;2023-07-24T01:22:57;6.78;;;4.13;;
59263;SDS011;45030;42.720;23.344;2023-07-24T01:25:33;8.48;;;4.35;;
59263;SDS011;45030;42.720;23.344;2023-07-24T01:28:08;8.05;;;3.78;;
59263;SDS011;45030;42.720;23.344;2023-07-24T01:30:33;9.80;;;5.03;;
59263;SDS011;45030;42.720;23.344;2023-07-24T01:32:58;7.55;;;4.65;;
59263;SDS011;45030;42.720;23.344;2023-07-24T01:35:24;9.43;;;4.75;;
59263;SDS011;45030;42.720;23.344;2023-07-24T01:37:49;9.70;;;5.07;;
59263;SDS011;45030;42.720;23.344;2023-07-24T01:40:15;9.40;;;5.15;;
59263;SDS011;45030;42.720;23.344;2023-07-24T01:42:41;9.98;;;5.18;;
59263;SDS011;45030;42.720;23.344;2023-07-24T01:45:07;9.10;;;5.30;;
59263;SDS011;45030;42.720;23.344;2023-07-24T01:47:32;11.05;;;5.55;;
59263;SDS011;45030;42.720;23.344;2023-07-24T01:49:57;11.20;;;4.90;;
59263;SDS011;45030;42.720;23.344;2023-07-24T01:52:23;8.40;;;4.90;;
59263;SDS011;45030;42.720;23.344;2023-07-24T01:54:48;7.95;;;4.80;;
59263;SDS011;45030;42.720;23.344;2023-07-24T01:57:13;8.80;;;5.63;;
59263;SDS011;45030;42.720;23.344;2023-07-24T01:59:38;9.38;;;5.32;;
59263;SDS011;45030;42.720;23.344;2023-07-24T02:02:04;9.55;;;6.25;;
59263;SDS011;45030;42.720;23.344;2023-07-24T02:04:29;9.38;;;6.10;;
59263;SDS011;45030;42.720;23.344;2023-07-24T02:06:54;9.43;;;6.22;;
59263;SDS011;45030;42.720;23.344;2023-07-24T02:09:20;11.32;;;6.95;;
59263;SDS011;45030;42.720;23.344;2023-07-24T02:11:45;9.23;;;6.25;;
59263;SDS011;45030;42.720;23.344;2023-07-24T02:14:13;10.25;;;5.90;;
59263;SDS011;45030;42.720;23.344;2023-07-24T02:16:39;10.95;;;6.70;;
59263;SDS011;45030;42.720;23.344;2023-07-24T02:19:05;8.95;;;6.25;;
59263;SDS011;45030;42.720;23.344;2023-07-24T02:21:30;8.73;;;5.97;;
59263;SDS011;45030;42.720;23.344;2023-07-24T02:23:55;10.50;;;5.97;;
59263;SDS011;45030;42.720;23.344;2023-07-24T02:26:21;9.70;;;6.28;;
59263;SDS011;45030;42.720;23.344;2023-07-24T02:28:46;8.63;;;5.88;;
59263;SDS011;45030;42.720;23.344;2023-07-24T02:31:11;8.63;;;5.10;;
59263;SDS011;45030;42.720;23.344;2023-07-24T02:33:36;6.80;;;3.90;;
59263;SDS011;45030;42.720;23.344;2023-07-24T02:36:02;8.55;;;4.10;;
59263;SDS011;45030;42.720;23.344;2023-07-24T02:38:27;6.15;;;3.67;;
59263;SDS011;45030;42.720;23.344;2023-07-24T02:40:52;8.63;;;5.07;;
59263;SDS011;45030;42.720;23.344;2023-07-24T02:43:17;9.52;;;3.90;;
59263;SDS011;45030;42.720;23.344;2023-07-24T02:45:43;8.87;;;4.67;;
59263;SDS011;45030;42.720;23.344;2023-07-24T02:48:08;38.65;;;22.52;;
59263;SDS011;45030;42.720;23.344;2023-07-24T02:50:33;59.67;;;36.33;;
59263;SDS011;45030;42.720;23.344;2023-07-24T02:52:59;39.35;;;24.73;;
59263;SDS011;45030;42.720;23.344;2023-07-24T02:55:24;33.33;;;20.67;;
59263;SDS011;45030;42.720;23.344;2023-07-24T02:57:49;29.40;;;17.52;;
59263;SDS011;45030;42.720;23.344;2023-07-24T03:00:15;20.35;;;11.40;;
59263;SDS011;45030;42.720;23.344;2023-07-24T03:02:40;20.13;;;11.68;;
59263;SDS011;45030;42.720;23.344;2023-07-24T03:05:05;17.25;;;10.40;;
59263;SDS011;45030;42.720;23.344;2023-07-24T03:07:31;15.68;;;8.60;;
59263;SDS011;45030;42.720;23.344;2023-07-24T03:09:56;14.25;;;7.32;;
59263;SDS011;45030;42.720;23.344;2023-07-24T03:12:22;12.60;;;6.97;;
59263;SDS011;45030;42.720;23.344;2023-07-24T03:14:47;10.65;;;6.47;;
59263;SDS011;45030;42.720;23.344;2023-07-24T03:17:12;12.38;;;6.65;;
59263;SDS011;45030;42.720;23.344;2023-07-24T03:19:38;11.35;;;6.88;;
59263;SDS011;45030;42.720;23.344;2023-07-24T03:22:03;12.18;;;6.47;;
59263;SDS011;45030;42.720;23.344;2023-07-24T03:24:28;10.45;;;6.43;;
59263;SDS011;45030;42.720;23.344;2023-07-24T03:26:53;11.77;;;6.90;;
59263;SDS011;45030;42.720;23.344;2023-07-24T03:29:19;14.43;;;8.18;;
59263;SDS011;45030;42.720;23.344;2023-07-24T03:31:44;13.02;;;6.75;;
59263;SDS011;45030;42.720;23.344;2023-07-24T03:34:09;12.75;;;7.28;;
59263;SDS011;45030;42.720;23.344;2023-07-24T03:36:34;11.15;;;6.97;;
59263;SDS011;45030;42.720;23.344;2023-07-24T03:39:00;14.13;;;7.32;;
59263;SDS011;45030;42.720;23.344;2023-07-24T03:41:26;16.58;;;8.18;;
59263;SDS011;45030;42.720;23.344;2023-07-24T03:43:51;11.18;;;7.32;;
59263;SDS011;45030;42.720;23.344;2023-07-24T03:46:16;16.90;;;8.48;;
59263;SDS011;45030;42.720;23.344;2023-07-24T03:48:41;13.43;;;8.40;;
59263;SDS011;45030;42.720;23.344;2023-07-24T03:51:07;12.85;;;7.78;;
59263;SDS011;45030;42.720;23.344;2023-07-24T03:53:33;13.20;;;8.65;;
59263;SDS011;45030;42.720;23.344;2023-07-24T03:55:58;12.95;;;8.18;;
59263;SDS011;45030;42.720;23.344;2023-07-24T03:58:23;12.55;;;7.25;;
59263;SDS011;45030;42.720;23.344;2023-07-24T04:00:49;11.05;;;6.53;;
59263;SDS011;45030;42.720;23.344;2023-07-24T04:03:15;10.48;;;6.57;;
59263;SDS011;45030;42.720;23.344;2023-07-24T04:05:40;8.90;;;4.75;;
59263;SDS011;45030;42.720;23.344;2023-07-24T04:08:05;10.80;;;5.25;;
59263;SDS011;45030;42.720;23.344;2023-07-24T04:10:30;9.27;;;5.32;;
59263;SDS011;45030;42.720;23.344;2023-07-24T04:12:56;12.55;;;5.60;;
59263;SDS011;45030;42.720;23.344;2023-07-24T04:15:21;10.05;;;5.18;;
59263;SDS011;45030;42.720;23.344;2023-07-24T04:17:47;11.52;;;4.97;;
59263;SDS011;45030;42.720;23.344;2023-07-24T04:20:12;14.50;;;6.32;;
59263;SDS011;45030;42.720;23.344;2023-07-24T04:22:37;13.77;;;5.07;;
59263;SDS011;45030;42.720;23.344;2023-07-24T04:25:02;10.82;;;5.60;;
59263;SDS011;45030;42.720;23.344;2023-07-24T04:27:28;11.60;;;5.53;;
59263;SDS011;45030;42.720;23.344;2023-07-24T04:29:53;13.40;;;5.63;;
59263;SDS011;45030;42.720;23.344;2023-07-24T04:32:19;11.80;;;5.45;;
59263;SDS011;45030;42.720;23.344;2023-07-24T04:34:44;13.80;;;6.40;;
59263;SDS011;45030;42.720;23.344;2023-07-24T04:37:09;10.70;;;5.80;;
59263;SDS011;45030;42.720;23.344;2023-07-24T04:39:34;13.07;;;7.32;;
59263;SDS011;45030;42.720;23.344;2023-07-24T04:42:00;16.60;;;5.85;;
59263;SDS011;45030;42.720;23.344;2023-07-24T04:44:25;12.20;;;6.15;;
59263;SDS011;45030;42.720;23.344;2023-07-24T04:46:50;12.25;;;6.32;;
59263;SDS011;45030;42.720;23.344;2023-07-24T04:49:15;7.77;;;4.00;;
59263;SDS011;45030;42.720;23.344;2023-07-24T04:51:41;10.73;;;4.82;;
59263;SDS011;45030;42.720;23.344;2023-07-24T04:54:06;9.18;;;5.90;;
59263;SDS011;45030;42.720;23.344;2023-07-24T04:56:31;13.35;;;8.68;;
59263;SDS011;45030;42.720;23.344;2023-07-24T04:58:56;12.13;;;5.88;;
59263;SDS011;45030;42.720;23.344;2023-07-24T05:01:22;11.68;;;4.65;;
59263;SDS011;45030;42.720;23.344;2023-07-24T05:03:47;13.32;;;5.65;;
59263;SDS011;45030;42.720;23.344;2023-07-24T05:06:12;10.88;;;5.72;;
59263;SDS011;45030;42.720;23.344;2023-07-24T05:08:37;9.48;;;5.65;;
59263;SDS011;45030;42.720;23.344;2023-07-24T05:11:03;9.57;;;6.20;;
59263;SDS011;45030;42.720;23.344;2023-07-24T05:13:28;9.68;;;5.00;;
59263;SDS011;45030;42.720;23.344;2023-07-24T05:15:53;12.63;;;5.25;;
59263;SDS011;45030;42.720;23.344;2023-07-24T05:18:18;10.15;;;4.82;;
59263;SDS011;45030;42.720;23.344;2023-07-24T05:20:44;14.65;;;4.82;;
59263;SDS011;45030;42.720;23.344;2023-07-24T05:23:10;10.75;;;5.35;;
59263;SDS011;45030;42.720;23.344;2023-07-24T05:25:35;8.57;;;4.70;;
59263;SDS011;45030;42.720;23.344;2023-07-24T05:28:01;10.45;;;4.45;;
59263;SDS011;45030;42.720;23.344;2023-07-24T05:30:26;7.65;;;4.50;;
59263;SDS011;45030;42.720;23.344;2023-07-24T05:32:51;8.13;;;4.55;;
59263;SDS011;45030;42.720;23.344;2023-07-24T05:35:16;8.02;;;4.38;;
59263;SDS011;45030;42.720;23.344;2023-07-24T05:37:42;9.48;;;4.85;;
59263;SDS011;45030;42.720;23.344;2023-07-24T05:40:07;12.07;;;5.57;;
59263;SDS011;45030;42.720;23.344;2023-07-24T05:42:32;10.45;;;4.18;;
59263;SDS011;45030;42.720;23.344;2023-07-24T05:44:58;9.07;;;5.13;;
59263;SDS011;45030;42.720;23.344;2023-07-24T05:47:23;11.43;;;4.93;;
59263;SDS011;45030;42.720;23.344;2023-07-24T05:49:48;11.25;;;5.07;;
59263;SDS011;45030;42.720;23.344;2023-07-24T05:52:13;11.80;;;5.30;;
59263;SDS011;45030;42.720;23.344;2023-07-24T05:54:38;10.03;;;5.00;;
59263;SDS011;45030;42.720;23.344;2023-07-24T05:57:04;13.18;;;6.05;;
59263;SDS011;45030;42.720;23.344;2023-07-24T05:59:29;8.30;;;4.38;;
59263;SDS011;45030;42.720;23.344;2023-07-24T06:01:55;11.70;;;4.80;;
59263;SDS011;45030;42.720;23.344;2023-07-24T06:04:20;8.20;;;5.07;;
59263;SDS011;45030;42.720;23.344;2023-07-24T06:06:45;14.83;;;6.37;;
59263;SDS011;45030;42.720;23.344;2023-07-24T06:09:10;6.95;;;4.35;;
59263;SDS011;45030;42.720;23.344;2023-07-24T06:11:35;11.47;;;5.23;;
59263;SDS011;45030;42.720;23.344;2023-07-24T06:14:01;7.80;;;4.17;;
59263;SDS011;45030;42.720;23.344;2023-07-24T06:16:26;12.60;;;6.70;;
59263;SDS011;45030;42.720;23.344;2023-07-24T06:18:51;8.37;;;5.10;;
59263;SDS011;45030;42.720;23.344;2023-07-24T06:21:16;8.87;;;5.17;;
59263;SDS011;45030;42.720;23.344;2023-07-24T06:23:42;7.33;;;4.20;;
59263;SDS011;45030;42.720;23.344;2023-07-24T06:26:07;8.67;;;4.77;;
59263;SDS011;45030;42.720;23.344;2023-07-24T06:28:32;8.63;;;4.73;;
59263;SDS011;45030;42.720;23.344;2023-07-24T06:30:58;7.82;;;4.60;;
59263;SDS011;45030;42.720;23.344;2023-07-24T06:33:23;8.27;;;5.28;;
59263;SDS011;45030;42.720;23.344;2023-07-24T06:35:49;13.93;;;6.43;;
59263;SDS011;45030;42.720;23.344;2023-07-24T06:38:15;9.40;;;5.53;;
59263;SDS011;45030;42.720;23.344;2023-07-24T06:40:40;8.73;;;5.03;;
59263;SDS011;45030;42.720;23.344;2023-07-24T06:43:05;9.63;;;5.20;;
59263;SDS011;45030;42.720;23.344;2023-07-24T06:45:30;15.17;;;7.50;;
59263;SDS011;45030;42.720;23.344;2023-07-24T06:47:56;9.25;;;5.07;;
59263;SDS011;45030;42.720;23.344;2023-07-24T06:50:21;10.02;;;5.28;;
59263;SDS011;45030;42.720;23.344;2023-07-24T06:52:46;9.93;;;4.40;;
59263;SDS011;45030;42.720;23.344;2023-07-24T06:55:12;10.68;;;5.68;;
59263;SDS011;45030;42.720;23.344;2023-07-24T06:57:38;8.43;;;5.00;;
59263;SDS011;45030;42.720;23.344;2023-07-24T07:00:03;9.32;;;5.38;;
59263;SDS011;45030;42.720;23.344;2023-07-24T07:02:28;8.70;;;4.72;;
59263;SDS011;45030;42.720;23.344;2023-07-24T07:04:54;8.05;;;4.15;;
59263;SDS011;45030;42.720;23.344;2023-07-24T07:07:19;9.50;;;4.23;;
59263;SDS011;45030;42.720;23.344;2023-07-24T07:09:45;9.85;;;4.38;;
59263;SDS011;45030;42.720;23.344;2023-07-24T07:12:11;7.05;;;4.30;;
59263;SDS011;45030;42.720;23.344;2023-07-24T07:14:36;8.03;;;4.73;;
59263;SDS011;45030;42.720;23.344;2023-07-24T07:17:01;7.82;;;4.32;;
59263;SDS011;45030;42.720;23.344;2023-07-24T07:19:26;6.32;;;4.40;;
59263;SDS011;45030;42.720;23.344;2023-07-24T07:21:52;12.82;;;4.65;;
59263;SDS011;45030;42.720;23.344;2023-07-24T07:24:17;8.07;;;4.73;;
59263;SDS011;45030;42.720;23.344;2023-07-24T07:26:42;8.10;;;4.00;;
59263;SDS011;45030;42.720;23.344;2023-07-24T07:29:08;7.03;;;3.63;;
59263;SDS011;45030;42.720;23.344;2023-07-24T07:31:34;8.13;;;4.13;;
59263;SDS011;45030;42.720;23.344;2023-07-24T07:33:59;7.00;;;3.78;;
59263;SDS011;45030;42.720;23.344;2023-07-24T07:36:24;7.20;;;5.03;;
59263;SDS011;45030;42.720;23.344;2023-07-24T07:38:49;9.50;;;5.35;;
59263;SDS011;45030;42.720;23.344;2023-07-24T07:41:15;10.80;;;4.43;;
59263;SDS011;45030;42.720;23.344;2023-07-24T07:43:40;13.27;;;5.50;;
59263;SDS011;45030;42.720;23.344;2023-07-24T07:46:05;19.20;;;8.13;;
59263;SDS011;45030;42.720;23.344;2023-07-24T07:48:30;9.80;;;5.22;;
59263;SDS011;45030;42.720;23.344;2023-07-24T07:50:57;8.07;;;4.43;;
59263;SDS011;45030;42.720;23.344;2023-07-24T07:53:22;8.37;;;5.67;;
59263;SDS011;45030;42.720;23.344;2023-07-24T07:55:54;8.10;;;4.17;;
59263;SDS011;45030;42.720;23.344;2023-07-24T07:58:21;7.88;;;4.60;;
59263;SDS011;45030;42.720;23.344;2023-07-24T08:00:46;7.90;;;4.13;;
59263;SDS011;45030;42.720;23.344;2023-07-24T08:03:11;7.03;;;4.03;;
59263;SDS011;45030;42.720;23.344;2023-07-24T08:05:36;5.73;;;4.07;;
59263;SDS011;45030;42.720;23.344;2023-07-24T08:08:02;8.20;;;4.57;;
59263;SDS011;45030;42.720;23.344;2023-07-24T08:10:27;7.95;;;4.50;;
59263;SDS011;45030;42.720;23.344;2023-07-24T08:12:52;12.57;;;5.07;;
59263;SDS011;45030;42.720;23.344;2023-07-24T08:15:18;6.57;;;3.97;;
59263;SDS011;45030;42.720;23.344;2023-07-24T08:17:43;13.17;;;4.30;;
59263;SDS011;45030;42.720;23.344;2023-07-24T08:20:08;7.93;;;5.00;;
59263;SDS011;45030;42.720;23.344;2023-07-24T08:22:33;11.70;;;5.55;;
59263;SDS011;45030;42.720;23.344;2023-07-24T08:24:59;5.93;;;4.30;;
59263;SDS011;45030;42.720;23.344;2023-07-24T08:27:24;8.67;;;4.80;;
59263;SDS011;45030;42.720;23.344;2023-07-24T08:29:52;8.07;;;4.67;;
59263;SDS011;45030;42.720;23.344;2023-07-24T08:32:18;10.27;;;4.93;;
59263;SDS011;45030;42.720;23.344;2023-07-24T08:34:43;7.72;;;5.10;;
59263;SDS011;45030;42.720;23.344;2023-07-24T08:37:08;9.47;;;6.30;;
59263;SDS011;45030;42.720;23.344;2023-07-24T08:39:33;9.97;;;4.97;;
59263;SDS011;45030;42.720;23.344;2023-07-24T08:41:59;10.80;;;5.53;;
59263;SDS011;45030;42.720;23.344;2023-07-24T08:44:24;14.47;;;8.80;;
59263;SDS011;45030;42.720;23.344;2023-07-24T08:46:50;36.97;;;20.08;;
59263;SDS011;45030;42.720;23.344;2023-07-24T08:49:16;11.07;;;5.68;;
59263;SDS011;45030;42.720;23.344;2023-07-24T08:51:42;12.48;;;5.47;;
59263;SDS011;45030;42.720;23.344;2023-07-24T08:54:08;9.57;;;6.00;;
59263;SDS011;45030;42.720;23.344;2023-07-24T08:56:35;10.23;;;5.57;;
59263;SDS011;45030;42.720;23.344;2023-07-24T08:59:01;9.50;;;5.65;;
59263;SDS011;45030;42.720;23.344;2023-07-24T09:01:26;10.32;;;5.20;;
59263;SDS011;45030;42.720;23.344;2023-07-24T09:03:51;7.83;;;5.00;;
59263;SDS011;45030;42.720;23.344;2023-07-24T09:06:17;9.77;;;5.20;;
59263;SDS011;45030;42.720;23.344;2023-07-24T09:08:42;9.10;;;5.30;;
59263;SDS011;45030;42.720;23.344;2023-07-24T09:11:08;9.45;;;5.57;;
59263;SDS011;45030;42.720;23.344;2023-07-24T09:13:35;9.77;;;5.60;;
59263;SDS011;45030;42.720;23.344;2023-07-24T09:16:00;9.88;;;5.88;;
59263;SDS011;45030;42.720;23.344;2023-07-24T09:18:26;9.40;;;5.20;;
59263;SDS011;45030;42.720;23.344;2023-07-24T09:20:51;7.53;;;5.15;;
59263;SDS011;45030;42.720;23.344;2023-07-24T09:23:25;10.57;;;6.45;;
59263;SDS011;45030;42.720;23.344;2023-07-24T09:25:50;9.95;;;5.28;;
59263;SDS011;45030;42.720;23.344;2023-07-24T09:28:16;7.67;;;4.77;;
59263;SDS011;45030;42.720;23.344;2023-07-24T09:30:42;8.00;;;5.22;;
59263;SDS011;45030;42.720;23.344;2023-07-24T09:33:15;10.98;;;5.28;;
59263;SDS011;45030;42.720;23.344;2023-07-24T09:35:40;7.80;;;4.90;;
59263;SDS011;45030;42.720;23.344;2023-07-24T09:38:06;11.03;;;5.13;;
59263;SDS011;45030;42.720;23.344;2023-07-24T09:40:39;8.35;;;5.22;;
59263;SDS011;45030;42.720;23.344;2023-07-24T09:45:43;8.02;;;5.03;;
59263;SDS011;45030;42.720;23.344;2023-07-24T09:48:08;7.93;;;4.70;;
59263;SDS011;45030;42.720;23.344;2023-07-24T09:50:36;9.35;;;4.72;;
59263;SDS011;45030;42.720;23.344;2023-07-24T09:53:01;11.10;;;6.65;;
59263;SDS011;45030;42.720;23.344;2023-07-24T09:55:30;7.38;;;4.80;;
59263;SDS011;45030;42.720;23.344;2023-07-24T09:57:59;10.30;;;5.40;;
59263;SDS011;45030;42.720;23.344;2023-07-24T10:00:25;8.77;;;5.28;;
59263;SDS011;45030;42.720;23.344;2023-07-24T10:02:50;9.27;;;5.20;;
59263;SDS011;45030;42.720;23.344;2023-07-24T10:05:16;11.57;;;5.57;;
59263;SDS011;45030;42.720;23.344;2023-07-24T10:07:42;9.35;;;4.78;;
59263;SDS011;45030;42.720;23.344;2023-07-24T10:10:07;9.98;;;5.50;;
59263;SDS011;45030;42.720;23.344;2023-07-24T10:12:33;8.70;;;4.90;;
59263;SDS011;45030;42.720;23.344;2023-07-24T10:14:59;10.75;;;5.13;;
59263;SDS011;45030;42.720;23.344;2023-07-24T10:17:34;9.55;;;5.20;;
59263;SDS011;45030;42.720;23.344;2023-07-24T10:20:09;10.15;;;5.20;;
59263;SDS011;45030;42.720;23.344;2023-07-24T10:22:35;11.38;;;5.32;;
59263;SDS011;45030;42.720;23.344;2023-07-24T10:25:02;9.32;;;4.93;;
59263;SDS011;45030;42.720;23.344;2023-07-24T10:27:28;10.30;;;4.88;;
59263;SDS011;45030;42.720;23.344;2023-07-24T10:30:03;9.50;;;6.40;;
59263;SDS011;45030;42.720;23.344;2023-07-24T10:32:28;8.98;;;4.88;;
59263;SDS011;45030;42.720;23.344;2023-07-24T10:35:05;9.10;;;5.33;;
59263;SDS011;45030;42.720;23.344;2023-07-24T10:37:38;13.13;;;4.97;;
59263;SDS011;45030;42.720;23.344;2023-07-24T10:40:06;10.23;;;4.50;;
59263;SDS011;45030;42.720;23.344;2023-07-24T10:42:31;9.30;;;5.13;;
59263;SDS011;45030;42.720;23.344;2023-07-24T10:45:08;7.57;;;4.65;;
59263;SDS011;45030;42.720;23.344;2023-07-24T10:47:33;10.38;;;5.07;;
59263;SDS011;45030;42.720;23.344;2023-07-24T10:49:59;9.07;;;5.00;;
59263;SDS011;45030;42.720;23.344;2023-07-24T10:52:32;8.40;;;5.07;;
59263;SDS011;45030;42.720;23.344;2023-07-24T10:57:26;17.53;;;10.20;;
59263;SDS011;45030;42.720;23.344;2023-07-24T10:59:51;12.32;;;6.40;;
59263;SDS011;45030;42.720;23.344;2023-07-24T11:02:17;9.63;;;4.67;;
59263;SDS011;45030;42.720;23.344;2023-07-24T11:04:42;15.53;;;5.30;;
59263;SDS011;45030;42.720;23.344;2023-07-24T11:07:07;8.97;;;4.30;;
59263;SDS011;45030;42.720;23.344;2023-07-24T11:09:36;10.38;;;5.05;;
59263;SDS011;45030;42.720;23.344;2023-07-24T11:14:58;7.35;;;4.72;;
59263;SDS011;45030;42.720;23.344;2023-07-24T11:17:32;9.90;;;4.85;;
59263;SDS011;45030;42.720;23.344;2023-07-24T11:20:12;9.65;;;5.00;;
59263;SDS011;45030;42.720;23.344;2023-07-24T11:22:38;8.13;;;4.95;;
59263;SDS011;45030;42.720;23.344;2023-07-24T11:25:04;7.15;;;4.43;;
59263;SDS011;45030;42.720;23.344;2023-07-24T11:27:30;9.73;;;4.20;;
59263;SDS011;45030;42.720;23.344;2023-07-24T11:29:56;7.73;;;4.00;;
59263;SDS011;45030;42.720;23.344;2023-07-24T11:32:21;8.57;;;4.80;;
59263;SDS011;45030;42.720;23.344;2023-07-24T11:34:48;8.13;;;3.97;;
59263;SDS011;45030;42.720;23.344;2023-07-24T11:37:13;7.97;;;4.30;;
59263;SDS011;45030;42.720;23.344;2023-07-24T11:39:39;8.23;;;4.72;;
59263;SDS011;45030;42.720;23.344;2023-07-24T11:42:04;9.47;;;4.60;;
59263;SDS011;45030;42.720;23.344;2023-07-24T11:44:30;10.30;;;5.30;;
59263;SDS011;45030;42.720;23.344;2023-07-24T11:47:02;7.00;;;4.03;;
59263;SDS011;45030;42.720;23.344;2023-07-24T11:49:28;6.32;;;3.90;;
59263;SDS011;45030;42.720;23.344;2023-07-24T11:51:59;6.90;;;4.22;;
59263;SDS011;45030;42.720;23.344;2023-07-24T11:54:24;7.15;;;4.32;;
59263;SDS011;45030;42.720;23.344;2023-07-24T11:56:49;9.17;;;3.90;;
59263;SDS011;45030;42.720;23.344;2023-07-24T11:59:15;9.50;;;4.30;;
59263;SDS011;45030;42.720;23.344;2023-07-24T12:01:40;7.85;;;4.38;;
59263;SDS011;45030;42.720;23.344;2023-07-24T12:04:06;6.90;;;4.13;;
59263;SDS011;45030;42.720;23.344;2023-07-24T12:06:31;7.63;;;5.27;;
59263;SDS011;45030;42.720;23.344;2023-07-24T12:09:03;7.20;;;4.30;;
59263;SDS011;45030;42.720;23.344;2023-07-24T12:11:30;7.35;;;4.18;;
59263;SDS011;45030;42.720;23.344;2023-07-24T12:13:55;7.60;;;3.95;;
59263;SDS011;45030;42.720;23.344;2023-07-24T12:16:20;6.83;;;4.23;;
59263;SDS011;45030;42.720;23.344;2023-07-24T12:18:45;7.32;;;4.18;;
59263;SDS011;45030;42.720;23.344;2023-07-24T12:21:11;7.40;;;4.77;;
59263;SDS011;45030;42.720;23.344;2023-07-24T12:23:36;6.93;;;4.10;;
59263;SDS011;45030;42.720;23.344;2023-07-24T12:26:01;8.17;;;4.13;;
59263;SDS011;45030;42.720;23.344;2023-07-24T12:28:26;8.80;;;4.40;;
59263;SDS011;45030;42.720;23.344;2023-07-24T12:30:52;9.30;;;5.17;;
59263;SDS011;45030;42.720;23.344;2023-07-24T12:33:17;9.80;;;5.15;;
59263;SDS011;45030;42.720;23.344;2023-07-24T12:35:42;9.40;;;4.40;;
59263;SDS011;45030;42.720;23.344;2023-07-24T12:38:08;7.72;;;4.43;;
59263;SDS011;45030;42.720;23.344;2023-07-24T12:40:33;9.37;;;4.90;;
59263;SDS011;45030;42.720;23.344;2023-07-24T12:42:58;11.00;;;5.33;;
59263;SDS011;45030;42.720;23.344;2023-07-24T12:45:23;6.67;;;4.30;;
59263;SDS011;45030;42.720;23.344;2023-07-24T12:47:49;8.33;;;4.63;;
59263;SDS011;45030;42.720;23.344;2023-07-24T12:50:14;7.65;;;4.32;;
59263;SDS011;45030;42.720;23.344;2023-07-24T12:52:41;6.67;;;4.60;;
59263;SDS011;45030;42.720;23.344;2023-07-24T12:55:07;8.77;;;4.60;;
59263;SDS011;45030;42.720;23.344;2023-07-24T12:57:32;7.57;;;4.38;;
59263;SDS011;45030;42.720;23.344;2023-07-24T12:59:58;8.60;;;4.17;;
59263;SDS011;45030;42.720;23.344;2023-07-24T13:02:23;9.10;;;5.13;;
59263;SDS011;45030;42.720;23.344;2023-07-24T13:04:48;8.07;;;4.63;;
59263;SDS011;45030;42.720;23.344;2023-07-24T13:07:13;6.83;;;4.20;;
59263;SDS011;45030;42.720;23.344;2023-07-24T13:09:39;9.40;;;5.17;;
59263;SDS011;45030;42.720;23.344;2023-07-24T13:12:04;8.23;;;4.57;;
59263;SDS011;45030;42.720;23.344;2023-07-24T13:14:29;6.90;;;4.75;;
59263;SDS011;45030;42.720;23.344;2023-07-24T13:16:55;8.63;;;4.50;;
59263;SDS011;45030;42.720;23.344;2023-07-24T13:19:20;6.53;;;4.63;;
59263;SDS011;45030;42.720;23.344;2023-07-24T13:21:45;7.60;;;4.27;;
59263;SDS011;45030;42.720;23.344;2023-07-24T13:24:12;5.90;;;4.15;;
59263;SDS011;45030;42.720;23.344;2023-07-24T13:26:37;6.22;;;4.13;;
59263;SDS011;45030;42.720;23.344;2023-07-24T13:29:02;5.73;;;3.63;;
59263;SDS011;45030;42.720;23.344;2023-07-24T13:31:28;7.60;;;4.47;;
59263;SDS011;45030;42.720;23.344;2023-07-24T13:33:54;6.65;;;3.95;;
59263;SDS011;45030;42.720;23.344;2023-07-24T13:36:19;7.00;;;4.23;;
59263;SDS011;45030;42.720;23.344;2023-07-24T13:38:44;8.53;;;4.53;;
59263;SDS011;45030;42.720;23.344;2023-07-24T13:41:09;5.93;;;4.13;;
59263;SDS011;45030;42.720;23.344;2023-07-24T13:43:35;11.17;;;5.17;;
59263;SDS011;45030;42.720;23.344;2023-07-24T13:46:00;10.30;;;5.00;;
59263;SDS011;45030;42.720;23.344;2023-07-24T13:48:27;8.55;;;4.60;;
59263;SDS011;45030;42.720;23.344;2023-07-24T13:50:53;8.30;;;4.43;;
59263;SDS011;45030;42.720;23.344;2023-07-24T13:53:18;8.30;;;4.40;;
59263;SDS011;45030;42.720;23.344;2023-07-24T13:55:43;7.93;;;4.77;;
59263;SDS011;45030;42.720;23.344;2023-07-24T13:58:08;7.37;;;4.90;;
59263;SDS011;45030;42.720;23.344;2023-07-24T14:00:34;7.30;;;4.38;;
59263;SDS011;45030;42.720;23.344;2023-07-24T14:02:59;8.50;;;5.20;;
59263;SDS011;45030;42.720;23.344;2023-07-24T14:05:24;6.97;;;4.37;;
59263;SDS011;45030;42.720;23.344;2023-07-24T14:07:49;8.53;;;3.97;;
59263;SDS011;45030;42.720;23.344;2023-07-24T14:10:15;8.10;;;4.97;;
59263;SDS011;45030;42.720;23.344;2023-07-24T14:12:40;9.60;;;4.90;;
59263;SDS011;45030;42.720;23.344;2023-07-24T14:15:05;7.50;;;4.40;;
59263;SDS011;45030;42.720;23.344;2023-07-24T14:17:30;8.50;;;4.35;;
59263;SDS011;45030;42.720;23.344;2023-07-24T14:19:56;6.70;;;4.30;;
59263;SDS011;45030;42.720;23.344;2023-07-24T14:22:21;7.33;;;4.87;;
59263;SDS011;45030;42.720;23.344;2023-07-24T14:24:46;7.97;;;4.23;;
59263;SDS011;45030;42.720;23.344;2023-07-24T14:27:12;6.72;;;4.22;;
59263;SDS011;45030;42.720;23.344;2023-07-24T14:29:37;7.43;;;4.00;;
59263;SDS011;45030;42.720;23.344;2023-07-24T14:32:03;7.72;;;4.50;;